Time;durP1;ratioP1;P1;durP2;ratioP2;P2;SDS_P1;SDS_P2;PMS_P1;PMS_P2;Temp;Humidity;BMP_temperature;BMP_pressure;BME280_temperature;BME280_humidity;BME280_pressure;Samples;Min_cycle;Max_cycle;Signal;HPM_P1;HPM_P2
2022/10/20 00:01:01;;;;;;;5.95;4.35;;;15.00;99.90;;;;;;5035560;28;20206;-75
2022/10/20 00:03:30;;;;;;;7.07;4.55;;;15.00;99.90;;;;;;5024689;28;20651;-75
2022/10/20 00:06:15;;;;;;;6.63;4.90;;;15.00;99.90;;;;;;5031472;28;20200;-77
2022/10/20 00:08:45;;;;;;;6.15;4.07;;;15.00;99.90;;;;;;5032697;28;20170;-76
2022/10/20 00:11:15;;;;;;;6.30;4.55;;;15.10;99.90;;;;;;5016741;28;20237;-76
2022/10/20 00:13:46;;;;;;;5.68;4.45;;;15.10;99.90;;;;;;5035737;28;20253;-76
2022/10/20 00:16:13;;;;;;;5.28;4.38;;;15.00;99.90;;;;;;5031797;28;20182;-76
2022/10/20 00:18:46;;;;;;;8.48;4.85;;;15.00;99.90;;;;;;5028155;28;20258;-76
2022/10/20 00:21:19;;;;;;;4.55;4.15;;;15.10;99.90;;;;;;5028243;28;20170;-76
2022/10/20 00:23:48;;;;;;;4.50;3.92;;;15.00;99.90;;;;;;5033468;28;20296;-74
2022/10/20 00:26:15;;;;;;;5.78;4.18;;;15.00;99.90;;;;;;5026388;28;20174;-74
2022/10/20 00:28:43;;;;;;;5.00;4.07;;;15.00;99.90;;;;;;5020287;28;20179;-74
2022/10/20 00:31:09;;;;;;;6.43;4.28;;;15.00;99.90;;;;;;5028990;28;20210;-74
2022/10/20 00:33:35;;;;;;;5.50;4.10;;;14.90;99.90;;;;;;5026832;28;20178;-74
2022/10/20 00:36:03;;;;;;;5.43;3.90;;;14.90;99.90;;;;;;5034870;28;20174;-75
2022/10/20 00:38:31;;;;;;;6.05;4.47;;;14.90;99.90;;;;;;5035614;28;20252;-75
2022/10/20 00:41:02;;;;;;;4.85;3.90;;;14.90;99.90;;;;;;5036542;28;20233;-74
2022/10/20 00:43:48;;;;;;;5.30;3.88;;;14.80;99.90;;;;;;5035171;28;20268;-75
2022/10/20 00:46:20;;;;;;;6.70;4.20;;;14.80;99.90;;;;;;5035520;28;20281;-74
2022/10/20 00:48:51;;;;;;;4.90;4.00;;;14.80;99.90;;;;;;5028793;28;20179;-74
2022/10/20 00:51:23;;;;;;;5.10;4.10;;;14.80;99.90;;;;;;5034557;28;20352;-75
2022/10/20 00:53:57;;;;;;;5.53;4.18;;;14.80;99.90;;;;;;5027979;28;20171;-75
2022/10/20 00:56:22;;;;;;;7.97;4.35;;;14.70;99.90;;;;;;5034550;28;20194;-75
2022/10/20 00:58:49;;;;;;;6.55;4.05;;;14.70;99.90;;;;;;5034076;28;20181;-73
2022/10/20 01:01:15;;;;;;;5.50;4.25;;;14.70;99.90;;;;;;5033947;28;20200;-75
2022/10/20 01:03:45;;;;;;;6.20;3.95;;;14.70;99.90;;;;;;5027102;28;20198;-74
2022/10/20 01:06:16;;;;;;;5.80;4.00;;;14.60;99.90;;;;;;5015283;28;20273;-74
2022/10/20 01:08:44;;;;;;;4.47;3.53;;;14.60;99.90;;;;;;5030586;28;20191;-74
2022/10/20 01:11:16;;;;;;;5.90;4.07;;;14.60;99.90;;;;;;5030084;28;20206;-74
2022/10/20 01:13:47;;;;;;;5.45;3.90;;;14.60;99.90;;;;;;5030722;28;20175;-75
2022/10/20 01:16:31;;;;;;;5.63;4.70;;;14.50;99.90;;;;;;5015333;28;20297;-74
2022/10/20 01:19:15;;;;;;;5.25;4.30;;;14.60;99.90;;;;;;5034044;28;20173;-73
2022/10/20 01:22:04;;;;;;;4.70;3.90;;;14.50;99.90;;;;;;5030339;28;20224;-76
2022/10/20 01:25:08;;;;;;;4.55;3.88;;;14.50;99.90;;;;;;5020514;28;20197;-75
2022/10/20 01:27:40;;;;;;;6.65;4.38;;;14.40;99.90;;;;;;5030487;28;20178;-74
2022/10/20 01:30:19;;;;;;;6.00;4.38;;;14.40;99.90;;;;;;5030088;28;20199;-74
2022/10/20 01:33:05;;;;;;;6.15;4.30;;;14.40;99.90;;;;;;5032968;28;20178;-74
2022/10/20 01:35:37;;;;;;;4.93;3.83;;;14.40;99.90;;;;;;5029819;28;20204;-76
2022/10/20 01:38:18;;;;;;;5.82;5.20;;;14.40;99.90;;;;;;5025952;28;20192;-75
2022/10/20 01:40:46;;;;;;;7.68;4.63;;;14.30;99.90;;;;;;5034576;28;20239;-76
2022/10/20 01:43:16;;;;;;;6.43;4.53;;;14.30;99.90;;;;;;5029073;28;20185;-76
2022/10/20 01:45:49;;;;;;;7.28;4.50;;;14.30;99.90;;;;;;5033141;28;20192;-76
2022/10/20 01:48:21;;;;;;;4.47;4.00;;;14.20;99.90;;;;;;5034524;28;20170;-75
2022/10/20 01:50:50;;;;;;;7.15;4.85;;;14.20;99.90;;;;;;5033540;28;20198;-74
2022/10/20 01:53:21;;;;;;;6.88;4.80;;;14.20;99.90;;;;;;5034229;28;20174;-76
2022/10/20 01:55:51;;;;;;;5.93;4.32;;;14.10;99.90;;;;;;5034347;28;20198;-74
2022/10/20 01:58:23;;;;;;;5.75;4.25;;;14.10;99.90;;;;;;5034176;28;20252;-76
2022/10/20 02:00:51;;;;;;;5.03;3.97;;;14.10;99.90;;;;;;5027965;28;20200;-73
2022/10/20 02:03:23;;;;;;;5.35;4.55;;;14.10;99.90;;;;;;5014383;28;20209;-74
2022/10/20 02:06:13;;;;;;;5.07;3.80;;;14.00;99.90;;;;;;5014620;28;20192;-72
2022/10/20 02:08:48;;;;;;;4.53;3.88;;;14.00;99.90;;;;;;5014911;28;20341;-74
2022/10/20 02:11:22;;;;;;;6.15;4.38;;;14.00;99.90;;;;;;5019575;28;20209;-75
2022/10/20 02:13:50;;;;;;;4.93;4.28;;;13.90;99.90;;;;;;5014501;28;20175;-75
2022/10/20 02:16:26;;;;;;;4.93;4.05;;;13.90;99.90;;;;;;5032199;28;20243;-73
2022/10/20 02:18:53;;;;;;;6.15;4.10;;;13.90;99.90;;;;;;5028113;28;20162;-74
2022/10/20 02:21:19;;;;;;;5.20;4.05;;;13.90;99.90;;;;;;5022126;28;20179;-73
2022/10/20 02:23:47;;;;;;;5.97;4.28;;;13.90;99.90;;;;;;5033556;28;20212;-73
2022/10/20 02:26:16;;;;;;;6.35;4.00;;;13.80;99.90;;;;;;5032489;28;20216;-74
2022/10/20 02:28:47;;;;;;;7.85;4.45;;;13.80;99.90;;;;;;5030399;28;20185;-73
2022/10/20 02:31:15;;;;;;;5.47;4.10;;;13.90;99.90;;;;;;5025875;28;20218;-74
2022/10/20 02:33:42;;;;;;;4.82;4.07;;;13.80;99.90;;;;;;5033586;28;20174;-75
2022/10/20 02:36:14;;;;;;;6.15;4.18;;;13.80;99.90;;;;;;5020279;28;20205;-75
2022/10/20 02:38:40;;;;;;;6.03;4.05;;;13.70;99.90;;;;;;5021065;28;20201;-73
2022/10/20 02:41:05;;;;;;;6.22;4.28;;;13.70;99.90;;;;;;5038002;28;20264;-73
2022/10/20 02:43:31;;;;;;;4.38;3.95;;;13.70;99.90;;;;;;5037783;28;20178;-74
2022/10/20 02:45:59;;;;;;;5.07;4.47;;;13.70;99.90;;;;;;5037588;28;20202;-72
2022/10/20 02:48:24;;;;;;;6.63;4.72;;;13.70;99.90;;;;;;5020531;28;20216;-73
2022/10/20 02:50:50;;;;;;;4.68;3.83;;;13.70;99.90;;;;;;5038250;28;20194;-72
2022/10/20 02:53:15;;;;;;;4.15;3.72;;;13.70;99.90;;;;;;5036992;28;20177;-73
2022/10/20 02:55:41;;;;;;;6.15;4.50;;;13.60;99.90;;;;;;5036974;28;20212;-73
2022/10/20 02:58:12;;;;;;;4.70;4.03;;;13.60;99.90;;;;;;5037709;28;20268;-73
2022/10/20 03:00:40;;;;;;;5.38;4.70;;;13.60;99.90;;;;;;5019005;28;20190;-74
2022/10/20 03:03:05;;;;;;;6.88;4.40;;;13.60;99.90;;;;;;5022883;28;20294;-74
2022/10/20 03:05:33;;;;;;;4.95;3.80;;;13.60;99.90;;;;;;5021022;28;20332;-75
2022/10/20 03:07:59;;;;;;;6.22;3.90;;;13.50;99.90;;;;;;5035566;28;20178;-74
2022/10/20 03:10:24;;;;;;;6.28;3.90;;;13.50;99.90;;;;;;5026755;28;20289;-74
2022/10/20 03:12:52;;;;;;;4.65;3.90;;;13.50;99.90;;;;;;5027642;28;20206;-75
2022/10/20 03:15:20;;;;;;;5.18;4.07;;;13.50;99.90;;;;;;5035016;28;20240;-73
2022/10/20 03:17:46;;;;;;;7.72;4.13;;;13.40;99.90;;;;;;5025581;28;20201;-75
2022/10/20 03:20:11;;;;;;;3.83;3.53;;;13.40;99.90;;;;;;5036630;28;20202;-74
2022/10/20 03:22:39;;;;;;;4.88;4.00;;;13.40;99.90;;;;;;5028116;28;20181;-74
2022/10/20 03:25:05;;;;;;;5.35;4.20;;;13.40;99.90;;;;;;5036120;28;20189;-74
2022/10/20 03:27:30;;;;;;;5.05;4.00;;;13.40;99.90;;;;;;5035016;28;20198;-74
2022/10/20 03:29:56;;;;;;;6.13;4.18;;;13.50;99.90;;;;;;5035248;28;20202;-75
2022/10/20 03:32:24;;;;;;;7.03;4.40;;;13.40;99.90;;;;;;5034333;28;20170;-74
2022/10/20 03:34:52;;;;;;;6.35;4.28;;;13.40;99.90;;;;;;5035879;28;20178;-74
2022/10/20 03:37:20;;;;;;;5.75;4.10;;;13.40;99.90;;;;;;5034843;28;20178;-74
2022/10/20 03:39:50;;;;;;;5.15;4.28;;;13.30;99.90;;;;;;5025963;28;20204;-74
2022/10/20 03:42:16;;;;;;;6.20;3.85;;;13.30;99.90;;;;;;5037026;28;20170;-74
2022/10/20 03:44:44;;;;;;;6.68;5.18;;;13.30;99.90;;;;;;5041636;28;20173;-74
2022/10/20 03:47:13;;;;;;;5.95;4.13;;;13.30;99.90;;;;;;5035868;28;20189;-74
2022/10/20 03:49:43;;;;;;;5.80;4.57;;;13.30;99.90;;;;;;5037099;28;20193;-73
2022/10/20 03:52:09;;;;;;;5.38;4.07;;;13.30;99.90;;;;;;5034163;28;20174;-74
2022/10/20 03:54:40;;;;;;;6.13;4.00;;;13.30;99.90;;;;;;5035874;28;20200;-73
2022/10/20 03:57:05;;;;;;;6.03;3.88;;;13.30;99.90;;;;;;5036457;28;20174;-73
2022/10/20 03:59:31;;;;;;;4.70;4.20;;;13.30;99.90;;;;;;5031541;28;20201;-73
2022/10/20 04:01:57;;;;;;;5.65;4.40;;;13.30;99.90;;;;;;5024795;28;20297;-74
2022/10/20 04:04:22;;;;;;;5.72;4.20;;;13.30;99.90;;;;;;5034202;28;20174;-74
2022/10/20 04:06:48;;;;;;;5.30;4.20;;;13.30;99.90;;;;;;5031038;28;20205;-73
2022/10/20 04:09:13;;;;;;;5.47;3.90;;;13.30;99.90;;;;;;5035524;28;20166;-72
2022/10/20 04:11:39;;;;;;;4.63;3.97;;;13.30;99.90;;;;;;5032794;28;20309;-73
2022/10/20 04:14:05;;;;;;;4.43;3.35;;;13.30;99.90;;;;;;5035611;28;20194;-74
2022/10/20 04:16:30;;;;;;;6.13;3.70;;;13.30;99.90;;;;;;5030849;28;20241;-73
2022/10/20 04:18:56;;;;;;;4.18;3.78;;;13.30;99.90;;;;;;5033373;28;20205;-73
2022/10/20 04:21:21;;;;;;;4.75;3.97;;;13.20;99.90;;;;;;5032523;28;20213;-74
2022/10/20 04:23:49;;;;;;;4.97;3.85;;;13.30;99.90;;;;;;5036366;28;20174;-73
2022/10/20 04:26:17;;;;;;;5.43;3.97;;;13.20;99.90;;;;;;5035534;28;20213;-75
2022/10/20 04:28:43;;;;;;;5.47;3.90;;;13.20;99.90;;;;;;5034190;28;20182;-74
2022/10/20 04:31:11;;;;;;;4.78;3.33;;;13.20;99.90;;;;;;5034936;28;20210;-74
2022/10/20 04:33:39;;;;;;;5.53;4.00;;;13.20;99.90;;;;;;5029851;28;20196;-74
2022/10/20 04:36:09;;;;;;;5.78;4.20;;;13.20;99.90;;;;;;5032339;28;20244;-73
2022/10/20 04:38:34;;;;;;;6.20;4.28;;;13.20;99.90;;;;;;5027570;28;20194;-74
2022/10/20 04:41:03;;;;;;;5.43;4.22;;;13.20;99.90;;;;;;5035640;28;20181;-74
2022/10/20 04:43:29;;;;;;;6.00;3.85;;;13.20;99.90;;;;;;5032297;28;20167;-72
2022/10/20 04:46:05;;;;;;;5.47;3.60;;;13.20;99.90;;;;;;5016654;28;20198;-74
2022/10/20 04:48:31;;;;;;;5.38;4.57;;;13.20;99.90;;;;;;5028996;28;20178;-74
2022/10/20 04:51:17;;;;;;;4.97;3.97;;;13.30;99.90;;;;;;5035823;28;20190;-73
2022/10/20 04:53:45;;;;;;;4.78;3.50;;;13.30;99.90;;;;;;5017072;28;20198;-73
2022/10/20 04:56:22;;;;;;;8.93;4.35;;;13.30;99.90;;;;;;5028164;28;20237;-74
2022/10/20 04:58:50;;;;;;;4.65;4.10;;;13.30;99.90;;;;;;5034980;28;20190;-74
2022/10/20 05:01:19;;;;;;;7.03;3.80;;;13.30;99.90;;;;;;5035870;28;20197;-74
2022/10/20 05:03:45;;;;;;;5.07;3.60;;;13.30;99.90;;;;;;5038566;28;20209;-74
2022/10/20 05:06:10;;;;;;;4.90;3.70;;;13.30;99.90;;;;;;5038360;28;20285;-74
2022/10/20 05:08:39;;;;;;;5.50;3.55;;;13.30;99.90;;;;;;5034380;28;20213;-74
2022/10/20 05:11:05;;;;;;;7.40;3.83;;;13.30;99.90;;;;;;5027267;28;20194;-73
2022/10/20 05:13:33;;;;;;;4.15;3.58;;;13.30;99.90;;;;;;5028590;28;20194;-74
2022/10/20 05:16:02;;;;;;;4.30;3.72;;;13.30;99.90;;;;;;5034632;28;20264;-75
2022/10/20 05:18:28;;;;;;;4.28;3.53;;;13.30;99.90;;;;;;5039676;28;20245;-74
2022/10/20 05:20:54;;;;;;;3.85;3.40;;;13.30;99.90;;;;;;5041397;28;20479;-73
2022/10/20 05:23:19;;;;;;;5.15;4.07;;;13.30;99.90;;;;;;5034390;28;20177;-73
2022/10/20 05:25:47;;;;;;;4.22;3.38;;;13.30;99.90;;;;;;5034781;28;20209;-74
2022/10/20 05:28:13;;;;;;;4.28;3.33;;;13.30;99.90;;;;;;5028291;28;20185;-74
2022/10/20 05:30:41;;;;;;;4.95;3.65;;;13.30;99.90;;;;;;5020623;28;20225;-74
2022/10/20 05:33:06;;;;;;;11.50;4.00;;;13.30;99.90;;;;;;5035642;28;20194;-74
2022/10/20 05:35:34;;;;;;;5.70;3.85;;;13.20;99.90;;;;;;5031176;28;20248;-72
2022/10/20 05:38:04;;;;;;;6.43;3.92;;;13.20;99.90;;;;;;5035567;28;20178;-75
2022/10/20 05:40:30;;;;;;;4.65;4.03;;;13.20;99.90;;;;;;5028664;28;20214;-75
2022/10/20 05:42:56;;;;;;;5.18;3.60;;;13.20;99.90;;;;;;5019144;28;20248;-74
2022/10/20 05:45:22;;;;;;;4.30;3.33;;;13.20;99.90;;;;;;5035882;28;20182;-74
2022/10/20 05:47:50;;;;;;;4.47;3.72;;;13.20;99.90;;;;;;5021701;28;20183;-74
2022/10/20 05:50:17;;;;;;;4.95;3.72;;;13.20;99.90;;;;;;5019026;28;20194;-74
2022/10/20 05:52:43;;;;;;;4.15;3.72;;;13.10;99.90;;;;;;5014433;28;20226;-74
2022/10/20 05:55:09;;;;;;;4.97;3.38;;;13.20;99.90;;;;;;5017547;28;20217;-73
2022/10/20 05:57:34;;;;;;;4.53;3.42;;;13.10;99.90;;;;;;5034233;28;20183;-74
2022/10/20 06:00:00;;;;;;;4.57;3.75;;;13.20;99.90;;;;;;5033411;28;20210;-73
2022/10/20 06:02:26;;;;;;;4.07;3.40;;;13.10;99.90;;;;;;5032164;28;20202;-75
2022/10/20 06:04:54;;;;;;;4.80;3.80;;;13.10;99.90;;;;;;5017871;28;20196;-75
2022/10/20 06:07:19;;;;;;;4.25;3.80;;;13.10;99.90;;;;;;5016346;28;20293;-73
2022/10/20 06:09:45;;;;;;;4.68;3.95;;;13.10;99.90;;;;;;5027417;28;20217;-74
2022/10/20 06:12:13;;;;;;;4.82;3.97;;;13.10;99.90;;;;;;5023401;28;20266;-73
2022/10/20 06:14:38;;;;;;;6.00;3.90;;;13.10;99.90;;;;;;5014644;28;20254;-75
2022/10/20 06:17:04;;;;;;;4.53;4.13;;;13.10;99.90;;;;;;5014427;28;20202;-74
2022/10/20 06:19:32;;;;;;;9.07;4.28;;;13.10;99.90;;;;;;5026287;28;20194;-73
2022/10/20 06:21:58;;;;;;;6.07;4.10;;;13.10;99.90;;;;;;5030449;28;20263;-72
2022/10/20 06:24:23;;;;;;;4.50;3.97;;;13.10;99.90;;;;;;5019327;28;20210;-74
2022/10/20 06:26:50;;;;;;;6.25;4.75;;;13.10;99.90;;;;;;5033266;28;20288;-74
2022/10/20 06:29:18;;;;;;;5.82;4.32;;;13.10;99.90;;;;;;5034259;28;20181;-74
2022/10/20 06:31:51;;;;;;;5.47;4.15;;;13.10;99.90;;;;;;5027625;28;20202;-74
2022/10/20 06:34:19;;;;;;;6.72;4.78;;;13.20;99.90;;;;;;5029821;28;20193;-73
2022/10/20 06:36:46;;;;;;;6.07;4.93;;;13.20;99.90;;;;;;5032640;28;20186;-74
2022/10/20 06:39:14;;;;;;;5.55;4.50;;;13.20;99.90;;;;;;5032989;28;20496;-74
2022/10/20 06:41:40;;;;;;;5.35;4.60;;;13.20;99.90;;;;;;5027409;28;20206;-74
2022/10/20 06:44:08;;;;;;;5.88;4.35;;;13.20;99.90;;;;;;5033916;28;20220;-75
2022/10/20 06:46:36;;;;;;;7.53;4.60;;;13.20;99.90;;;;;;5033105;28;20202;-73
2022/10/20 06:49:06;;;;;;;6.63;4.70;;;13.30;99.90;;;;;;5029006;28;20248;-73
2022/10/20 06:51:37;;;;;;;6.70;4.68;;;13.30;99.90;;;;;;5034016;28;20198;-75
2022/10/20 06:54:03;;;;;;;6.10;4.38;;;13.40;99.90;;;;;;5033285;28;20198;-73
2022/10/20 06:56:33;;;;;;;5.22;4.20;;;13.40;99.90;;;;;;5033467;28;20240;-73
2022/10/20 06:59:02;;;;;;;11.35;4.70;;;13.40;99.90;;;;;;5031701;28;20181;-73
2022/10/20 07:01:30;;;;;;;6.40;4.25;;;13.40;99.90;;;;;;5033334;28;20202;-74
2022/10/20 07:04:00;;;;;;;7.60;4.35;;;13.50;99.90;;;;;;5030920;28;20194;-74
2022/10/20 07:06:35;;;;;;;8.30;5.28;;;13.50;99.90;;;;;;5017398;28;20185;-74
2022/10/20 07:09:07;;;;;;;5.57;4.95;;;13.50;99.90;;;;;;5021437;28;20190;-73
2022/10/20 07:11:37;;;;;;;5.90;4.72;;;13.60;99.90;;;;;;5014152;28;20205;-74
2022/10/20 07:14:03;;;;;;;5.10;4.60;;;13.70;99.90;;;;;;5014240;28;20197;-75
2022/10/20 07:16:31;;;;;;;6.72;4.88;;;13.60;99.90;;;;;;5014373;28;20213;-74
2022/10/20 07:18:57;;;;;;;6.68;5.18;;;13.60;99.90;;;;;;5014879;28;20175;-75
2022/10/20 07:21:25;;;;;;;5.60;5.00;;;13.70;99.90;;;;;;5025301;28;20201;-74
2022/10/20 07:23:52;;;;;;;7.55;5.55;;;13.70;99.90;;;;;;5035352;28;20371;-75
2022/10/20 07:26:25;;;;;;;6.68;5.18;;;13.80;99.90;;;;;;5036538;28;20178;-75
2022/10/20 07:28:54;;;;;;;6.93;5.65;;;13.80;99.90;;;;;;5036552;28;20205;-76
2022/10/20 07:31:29;;;;;;;8.75;5.15;;;13.80;99.90;;;;;;5034354;28;20217;-74
2022/10/20 07:33:59;;;;;;;7.18;5.13;;;13.90;99.90;;;;;;5023258;28;21343;-74
2022/10/20 07:36:27;;;;;;;6.25;4.95;;;13.90;99.90;;;;;;5037200;28;20197;-76
2022/10/20 07:38:56;;;;;;;6.82;5.00;;;13.90;99.90;;;;;;5020175;28;20194;-76
2022/10/20 07:41:22;;;;;;;7.10;5.50;;;14.00;99.90;;;;;;5027322;28;20227;-76
2022/10/20 07:43:47;;;;;;;6.78;5.60;;;14.00;99.90;;;;;;5034295;28;20239;-75
2022/10/20 07:46:13;;;;;;;6.40;5.20;;;14.00;99.90;;;;;;5027618;28;20256;-75
2022/10/20 07:48:40;;;;;;;8.80;5.25;;;14.10;99.90;;;;;;5022126;28;20199;-74
2022/10/20 07:51:27;;;;;;;7.30;5.80;;;14.10;99.90;;;;;;5028895;28;20198;-75
2022/10/20 07:53:55;;;;;;;8.27;5.55;;;14.10;99.90;;;;;;5030899;28;20177;-74
2022/10/20 07:56:21;;;;;;;6.35;5.63;;;14.20;99.90;;;;;;5018553;28;20178;-73
2022/10/20 07:58:47;;;;;;;5.75;5.07;;;14.20;99.90;;;;;;5036367;28;20170;-75
2022/10/20 08:01:13;;;;;;;5.82;4.60;;;14.20;99.90;;;;;;5037528;28;20213;-73
2022/10/20 08:03:41;;;;;;;9.15;5.93;;;14.30;99.90;;;;;;5027565;28;20243;-74
2022/10/20 08:06:09;;;;;;;6.57;5.10;;;14.30;99.90;;;;;;5039904;28;20284;-74
2022/10/20 08:08:35;;;;;;;7.97;5.00;;;14.40;99.90;;;;;;5028737;28;20204;-74
2022/10/20 08:11:03;;;;;;;6.43;5.70;;;14.40;99.90;;;;;;5036032;28;20193;-75
2022/10/20 08:13:29;;;;;;;6.57;5.13;;;14.40;99.90;;;;;;5035786;28;20260;-76
2022/10/20 08:15:57;;;;;;;7.32;5.18;;;14.50;99.90;;;;;;5027117;28;20281;-75
2022/10/20 08:18:23;;;;;;;6.80;4.72;;;14.50;99.90;;;;;;5016951;28;20181;-75
2022/10/20 08:20:49;;;;;;;8.10;4.90;;;14.50;99.90;;;;;;5035599;28;20269;-73
2022/10/20 08:23:17;;;;;;;8.60;5.70;;;14.50;99.90;;;;;;5035493;28;20177;-74
2022/10/20 08:25:42;;;;;;;9.20;6.38;;;14.60;99.90;;;;;;5049858;28;20174;-74
2022/10/20 08:28:11;;;;;;;6.53;5.68;;;14.60;99.90;;;;;;5034594;28;20205;-72
2022/10/20 08:30:36;;;;;;;5.68;4.85;;;14.60;99.90;;;;;;5022316;28;20222;-74
2022/10/20 08:33:02;;;;;;;8.98;6.05;;;14.70;99.90;;;;;;5025227;28;20221;-75
2022/10/20 08:35:30;;;;;;;5.22;4.72;;;14.60;99.90;;;;;;5035592;28;20190;-75
2022/10/20 08:37:58;;;;;;;5.97;4.78;;;14.70;99.90;;;;;;5035917;28;20249;-74
2022/10/20 08:40:30;;;;;;;6.22;4.80;;;14.70;99.90;;;;;;5030269;28;20175;-75
2022/10/20 08:42:56;;;;;;;7.95;5.20;;;14.70;99.90;;;;;;5015920;28;20202;-75
2022/10/20 08:45:30;;;;;;;5.93;5.00;;;14.70;99.90;;;;;;5016854;28;20179;-73
2022/10/20 08:47:57;;;;;;;5.68;4.88;;;14.70;99.90;;;;;;5016712;28;20186;-73
2022/10/20 08:50:27;;;;;;;7.28;5.18;;;14.70;99.90;;;;;;5017890;28;20738;-74
2022/10/20 08:52:57;;;;;;;7.32;5.85;;;14.70;99.90;;;;;;5038575;28;20188;-74
2022/10/20 08:55:27;;;;;;;9.20;5.75;;;14.60;99.90;;;;;;5037348;28;20224;-74
2022/10/20 08:58:00;;;;;;;7.03;5.68;;;14.60;99.90;;;;;;5020060;28;20171;-75
2022/10/20 09:00:30;;;;;;;6.35;5.55;;;14.60;99.90;;;;;;5025089;28;20372;-73
2022/10/20 09:03:12;;;;;;;6.57;5.47;;;14.60;99.90;;;;;;5035523;28;20224;-73
2022/10/20 09:05:44;;;;;;;6.45;5.65;;;14.60;99.90;;;;;;5032220;28;20167;-73
2022/10/20 09:08:09;;;;;;;8.38;5.72;;;14.60;99.90;;;;;;5034451;28;20265;-75
2022/10/20 09:10:49;;;;;;;8.70;5.50;;;14.60;99.90;;;;;;5035041;28;20205;-74
2022/10/20 09:13:23;;;;;;;7.60;5.35;;;14.60;99.90;;;;;;5021980;28;20174;-72
2022/10/20 09:16:14;;;;;;;7.82;5.38;;;14.60;99.90;;;;;;5034971;28;20201;-73
2022/10/20 09:18:40;;;;;;;8.00;5.95;;;14.60;99.90;;;;;;5019996;28;20190;-75
2022/10/20 09:21:22;;;;;;;14.25;5.07;;;14.60;99.90;;;;;;5014683;28;20245;-75
2022/10/20 09:23:53;;;;;;;7.95;5.43;;;14.70;99.90;;;;;;5015125;28;20189;-73
2022/10/20 09:26:34;;;;;;;7.13;5.82;;;14.70;99.90;;;;;;5043922;28;20181;-73
2022/10/20 09:29:14;;;;;;;5.88;4.88;;;14.60;99.90;;;;;;5042685;28;20216;-73
2022/10/20 09:31:48;;;;;;;6.95;5.30;;;14.70;99.90;;;;;;5034117;28;20213;-74
2022/10/20 09:34:33;;;;;;;8.68;6.00;;;14.60;99.90;;;;;;5033934;28;20185;-74
2022/10/20 09:37:02;;;;;;;7.25;6.00;;;14.70;99.90;;;;;;5014871;28;20194;-74
2022/10/20 09:39:53;;;;;;;6.85;5.20;;;14.70;99.90;;;;;;5024755;28;20256;-74
2022/10/20 09:42:21;;;;;;;7.72;5.18;;;14.70;99.90;;;;;;5033207;28;20261;-75
2022/10/20 09:45:00;;;;;;;6.43;5.18;;;14.80;99.90;;;;;;5034551;28;20178;-75
2022/10/20 09:47:29;;;;;;;8.73;5.80;;;14.80;99.90;;;;;;5015834;28;20261;-74
2022/10/20 09:50:07;;;;;;;7.00;5.00;;;14.90;99.90;;;;;;5017254;28;20286;-74
2022/10/20 09:52:46;;;;;;;8.07;5.78;;;14.90;99.90;;;;;;5031981;28;20166;-74
2022/10/20 09:55:34;;;;;;;8.52;5.60;;;14.90;99.90;;;;;;5033502;28;20186;-73
2022/10/20 09:58:05;;;;;;;7.00;5.50;;;14.90;99.90;;;;;;5017714;28;20261;-74
2022/10/20 10:00:36;;;;;;;6.00;5.40;;;14.90;99.90;;;;;;5023056;28;20184;-74
2022/10/20 10:03:20;;;;;;;5.75;5.18;;;14.90;99.90;;;;;;5034800;28;20278;-74
2022/10/20 10:06:15;;;;;;;7.82;5.70;;;14.90;99.90;;;;;;5034793;28;20178;-74
2022/10/20 10:08:46;;;;;;;7.25;6.22;;;14.90;99.90;;;;;;5001220;28;20195;-79
2022/10/20 10:11:20;;;;;;;8.57;5.53;;;14.90;99.90;;;;;;5015793;28;20194;-78
2022/10/20 10:13:50;;;;;;;10.15;6.47;;;14.90;99.90;;;;;;5033337;28;20184;-77
2022/10/20 10:16:19;;;;;;;9.02;6.40;;;14.90;99.90;;;;;;5044298;28;20200;-77
2022/10/20 10:19:00;;;;;;;9.38;6.55;;;14.90;99.90;;;;;;5036726;28;20174;-78
2022/10/20 10:21:27;;;;;;;11.35;6.18;;;14.90;99.90;;;;;;5019779;28;20197;-78
2022/10/20 10:24:03;;;;;;;7.95;6.10;;;14.90;99.90;;;;;;5033916;28;20198;-77
2022/10/20 10:26:43;;;;;;;7.38;6.15;;;14.90;99.90;;;;;;5020142;28;20188;-76
2022/10/20 10:29:27;;;;;;;7.82;5.70;;;14.90;99.90;;;;;;5034497;28;20177;-78
2022/10/20 10:31:59;;;;;;;8.30;6.15;;;14.90;99.90;;;;;;5025082;28;20190;-78
2022/10/20 10:34:44;;;;;;;8.10;6.07;;;14.90;99.90;;;;;;5034784;28;20174;-78
2022/10/20 10:37:13;;;;;;;7.53;5.75;;;15.00;99.90;;;;;;5032664;28;20226;-77
2022/10/20 10:39:42;;;;;;;6.63;5.22;;;15.00;99.90;;;;;;5033159;28;20178;-78
2022/10/20 10:42:45;;;;;;;6.18;5.50;;;15.00;99.90;;;;;;5037069;28;20166;-78
2022/10/20 10:45:27;;;;;;;6.50;5.47;;;15.00;99.90;;;;;;5034473;28;20278;-78
2022/10/20 10:48:20;;;;;;;10.10;5.95;;;15.00;99.90;;;;;;5020583;28;20186;-78
2022/10/20 10:51:07;;;;;;;7.45;5.57;;;15.00;99.90;;;;;;5020030;28;20209;-78
2022/10/20 10:53:53;;;;;;;7.15;6.32;;;15.00;99.90;;;;;;5034679;28;20228;-77
2022/10/20 10:56:24;;;;;;;8.85;6.65;;;15.00;99.90;;;;;;5015873;28;20167;-77
2022/10/20 10:59:13;;;;;;;6.68;5.80;;;15.00;99.90;;;;;;5035041;28;20181;-78
2022/10/20 11:02:10;;;;;;;6.85;5.53;;;15.00;99.90;;;;;;5038052;28;20197;-76
2022/10/20 11:05:06;;;;;;;7.03;5.40;;;15.00;99.90;;;;;;4996835;28;20197;-75
2022/10/20 11:07:44;;;;;;;6.68;5.47;;;15.00;99.90;;;;;;5019206;28;20163;-76
2022/10/20 11:10:31;;;;;;;6.88;5.47;;;15.10;99.90;;;;;;5020376;28;20304;-76
2022/10/20 11:13:36;;;;;;;9.60;5.47;;;15.10;99.90;;;;;;5014496;28;20194;-77
2022/10/20 11:16:28;;;;;;;9.32;5.60;;;15.10;99.90;;;;;;5021760;28;20275;-77
2022/10/20 11:19:16;;;;;;;6.00;5.38;;;15.10;99.90;;;;;;5024564;28;20281;-76
2022/10/20 11:22:02;;;;;;;6.25;5.13;;;15.10;99.90;;;;;;5037778;28;20216;-75
2022/10/20 11:24:42;;;;;;;7.00;5.80;;;15.10;99.90;;;;;;5018267;28;20182;-77
2022/10/20 11:27:15;;;;;;;6.55;5.47;;;15.10;99.90;;;;;;5035370;28;20178;-75
2022/10/20 11:30:14;;;;;;;6.47;5.68;;;15.10;99.90;;;;;;5036588;28;20600;-75
2022/10/20 11:33:21;;;;;;;8.85;6.03;;;15.10;99.90;;;;;;5037199;28;20192;-76
2022/10/20 11:36:11;;;;;;;8.02;6.35;;;15.10;99.90;;;;;;5037142;28;20193;-77
2022/10/20 11:38:42;;;;;;;7.38;6.07;;;15.10;99.90;;;;;;5031210;28;20179;-77
2022/10/20 11:41:26;;;;;;;7.43;6.63;;;15.10;99.90;;;;;;5036363;28;20190;-76
2022/10/20 11:43:57;;;;;;;6.85;6.10;;;15.10;99.90;;;;;;5037050;28;20197;-77
2022/10/20 11:47:09;;;;;;;8.35;7.00;;;15.10;99.90;;;;;;5036923;28;20265;-75
2022/10/20 11:49:39;;;;;;;8.75;5.95;;;15.10;99.90;;;;;;5030352;28;20213;-77
2022/10/20 11:52:41;;;;;;;7.93;6.13;;;15.00;99.90;;;;;;5023566;28;20202;-77
2022/10/20 11:55:22;;;;;;;7.82;6.40;;;15.00;99.90;;;;;;5030051;28;20178;-76
2022/10/20 11:57:51;;;;;;;6.78;6.03;;;15.00;99.90;;;;;;5017391;28;20238;-76
2022/10/20 12:00:27;;;;;;;7.93;7.07;;;14.90;99.90;;;;;;5032908;28;20190;-77
2022/10/20 12:03:27;;;;;;;11.52;8.10;;;14.90;99.90;;;;;;5033187;28;20244;-76
2022/10/20 12:06:43;;;;;;;9.05;6.88;;;14.90;99.90;;;;;;5019070;28;20209;-77
2022/10/20 12:09:27;;;;;;;7.88;6.70;;;14.90;99.90;;;;;;5006007;28;20191;-77
2022/10/20 12:12:04;;;;;;;8.07;7.28;;;14.90;99.90;;;;;;5017676;28;20206;-77
2022/10/20 12:14:40;;;;;;;8.98;7.00;;;14.90;99.90;;;;;;5034472;28;20172;-76
2022/10/20 12:17:48;;;;;;;8.40;6.82;;;14.80;99.90;;;;;;5029319;28;20178;-77
2022/10/20 12:20:20;;;;;;;7.82;6.93;;;14.80;99.90;;;;;;5022385;28;20389;-77
2022/10/20 12:22:50;;;;;;;8.68;7.35;;;14.90;99.90;;;;;;5025921;28;20184;-76
2022/10/20 12:25:27;;;;;;;8.88;6.97;;;14.90;99.90;;;;;;5037141;28;20201;-77
2022/10/20 12:28:26;;;;;;;8.15;7.00;;;14.90;99.90;;;;;;5036411;28;20173;-77
2022/10/20 12:30:55;;;;;;;8.82;7.20;;;14.90;99.90;;;;;;5020897;28;20210;-76
2022/10/20 12:33:36;;;;;;;9.77;7.53;;;14.90;99.90;;;;;;5028239;28;20185;-76
2022/10/20 12:36:13;;;;;;;7.55;6.75;;;14.90;99.90;;;;;;5020290;28;20189;-77
2022/10/20 12:38:41;;;;;;;7.80;7.00;;;14.90;99.90;;;;;;5036297;28;20221;-76
2022/10/20 12:41:08;;;;;;;10.10;7.72;;;14.90;99.90;;;;;;5035814;28;20189;-77
2022/10/20 12:43:49;;;;;;;8.32;7.07;;;14.90;99.90;;;;;;5030054;28;20233;-77
2022/10/20 12:46:20;;;;;;;7.70;6.78;;;15.00;99.90;;;;;;5033636;28;20185;-75
2022/10/20 12:48:48;;;;;;;7.88;7.07;;;15.00;99.90;;;;;;5036421;28;20178;-77
2022/10/20 12:51:22;;;;;;;8.40;7.50;;;15.10;99.90;;;;;;5036213;28;20214;-76
2022/10/20 12:53:57;;;;;;;9.95;7.43;;;15.10;99.90;;;;;;5035951;28;20170;-76
2022/10/20 12:56:30;;;;;;;8.65;7.20;;;15.20;99.90;;;;;;5035830;28;20189;-77
2022/10/20 12:59:30;;;;;;;7.65;6.38;;;15.20;99.90;;;;;;5035383;28;20240;-77
2022/10/20 13:02:08;;;;;;;8.50;6.80;;;15.20;99.90;;;;;;5024822;28;20256;-77
2022/10/20 13:04:56;;;;;;;7.97;6.68;;;15.30;99.90;;;;;;5036995;28;20180;-77
2022/10/20 13:07:46;;;;;;;8.45;7.22;;;15.30;99.90;;;;;;5035021;28;20216;-75
2022/10/20 13:10:24;;;;;;;10.23;8.23;;;15.40;99.90;;;;;;5030762;28;20178;-76
2022/10/20 13:12:50;;;;;;;8.18;7.38;;;15.40;99.90;;;;;;5031857;28;20236;-76